sensor_id;sensor_type;location;lat;lon;timestamp;pressure;altitude;pressure_sealevel;temperature;humidity
32109;BME280;18624;50.042;8.436;2023-03-21T00:00:33;100729.03;;;10.08;100.00
32109;BME280;18624;50.042;8.436;2023-03-21T00:03:00;100727.84;;;10.09;100.00
32109;BME280;18624;50.042;8.436;2023-03-21T00:05:26;100728.25;;;10.07;100.00
32109;BME280;18624;50.042;8.436;2023-03-21T00:07:53;100725.56;;;10.04;100.00
32109;BME280;18624;50.042;8.436;2023-03-21T00:10:20;100717.78;;;10.02;100.00
32109;BME280;18624;50.042;8.436;2023-03-21T00:13:04;100709.69;;;9.95;100.00
32109;BME280;18624;50.042;8.436;2023-03-21T00:15:31;100722.53;;;9.98;100.00
32109;BME280;18624;50.042;8.436;2023-03-21T00:18:17;100716.28;;;9.98;100.00
32109;BME280;18624;50.042;8.436;2023-03-21T00:21:03;100717.06;;;9.98;100.00
32109;BME280;18624;50.042;8.436;2023-03-21T00:23:51;100715.50;;;9.97;100.00
32109;BME280;18624;50.042;8.436;2023-03-21T00:26:17;100708.50;;;9.96;100.00
32109;BME280;18624;50.042;8.436;2023-03-21T00:28:44;100705.03;;;9.92;100.00
32109;BME280;18624;50.042;8.436;2023-03-21T00:31:11;100705.03;;;9.92;100.00
32109;BME280;18624;50.042;8.436;2023-03-21T00:33:38;100709.31;;;9.93;100.00
32109;BME280;18624;50.042;8.436;2023-03-21T00:36:06;100681.41;;;9.78;100.00
32109;BME280;18624;50.042;8.436;2023-03-21T00:38:33;100712.06;;;9.93;100.00
32109;BME280;18624;50.042;8.436;2023-03-21T00:41:08;100699.13;;;9.94;100.00
32109;BME280;18624;50.042;8.436;2023-03-21T00:43:49;100704.22;;;9.95;100.00
32109;BME280;18624;50.042;8.436;2023-03-21T00:46:17;100700.28;;;9.96;100.00
32109;BME280;18624;50.042;8.436;2023-03-21T00:48:43;100694.03;;;9.96;100.00
32109;BME280;18624;50.042;8.436;2023-03-21T00:51:12;100686.59;;;9.96;100.00
32109;BME280;18624;50.042;8.436;2023-03-21T00:53:41;100691.66;;;9.98;100.00
32109;BME280;18624;50.042;8.436;2023-03-21T00:56:07;100680.34;;;9.96;100.00
32109;BME280;18624;50.042;8.436;2023-03-21T00:58:34;100682.31;;;9.95;100.00
32109;BME280;18624;50.042;8.436;2023-03-21T01:01:00;100679.56;;;9.95;100.00
32109;BME280;18624;50.042;8.436;2023-03-21T01:03:28;100674.50;;;9.94;100.00
32109;BME280;18624;50.042;8.436;2023-03-21T01:05:54;100661.16;;;9.72;100.00
32109;BME280;18624;50.042;8.436;2023-03-21T01:08:36;100687.91;;;9.88;100.00
32109;BME280;18624;50.042;8.436;2023-03-21T01:11:20;100679.72;;;9.84;100.00
32109;BME280;18624;50.042;8.436;2023-03-21T01:13:47;100675.44;;;9.83;100.00
32109;BME280;18624;50.042;8.436;2023-03-21T01:16:25;100673.13;;;9.82;100.00
32109;BME280;18624;50.042;8.436;2023-03-21T01:18:51;100676.28;;;9.80;100.00
32109;BME280;18624;50.042;8.436;2023-03-21T01:21:18;100677.41;;;9.83;100.00
32109;BME280;18624;50.042;8.436;2023-03-21T01:23:45;100676.66;;;9.82;100.00
32109;BME280;18624;50.042;8.436;2023-03-21T01:26:11;100673.47;;;9.84;100.00
32109;BME280;18624;50.042;8.436;2023-03-21T01:28:40;100674.25;;;9.84;100.00
32109;BME280;18624;50.042;8.436;2023-03-21T01:31:07;100634.69;;;9.66;100.00
32109;BME280;18624;50.042;8.436;2023-03-21T01:33:35;100671.94;;;9.83;100.00
32109;BME280;18624;50.042;8.436;2023-03-21T01:36:02;100661.81;;;9.80;100.00
32109;BME280;18624;50.042;8.436;2023-03-21T01:38:39;100668.13;;;9.77;100.00
32109;BME280;18624;50.042;8.436;2023-03-21T01:41:06;100656.34;;;9.80;100.00
32109;BME280;18624;50.042;8.436;2023-03-21T01:43:45;100662.63;;;9.77;100.00
32109;BME280;18624;50.042;8.436;2023-03-21T01:46:35;100660.69;;;9.77;100.00
32109;BME280;18624;50.042;8.436;2023-03-21T01:49:57;100658.84;;;9.71;100.00
32109;BME280;18624;50.042;8.436;2023-03-21T01:52:45;100657.03;;;9.60;100.00
32109;BME280;18624;50.042;8.436;2023-03-21T01:55:22;100648.94;;;9.53;100.00
32109;BME280;18624;50.042;8.436;2023-03-21T01:57:55;100658.63;;;9.58;100.00
32109;BME280;18624;50.042;8.436;2023-03-21T02:01:01;100655.94;;;9.54;100.00
32109;BME280;18624;50.042;8.436;2023-03-21T02:03:41;100650.94;;;9.49;100.00
32109;BME280;18624;50.042;8.436;2023-03-21T02:06:28;100623.59;;;9.22;100.00
32109;BME280;18624;50.042;8.436;2023-03-21T02:09:06;100640.22;;;9.35;100.00
32109;BME280;18624;50.042;8.436;2023-03-21T02:11:36;100647.22;;;9.36;100.00
32109;BME280;18624;50.042;8.436;2023-03-21T02:14:04;100646.16;;;9.30;100.00
32109;BME280;18624;50.042;8.436;2023-03-21T02:28:02;100635.94;;;9.07;100.00
32109;BME280;18624;50.042;8.436;2023-03-21T02:36:44;100624.69;;;9.01;100.00
32109;BME280;18624;50.042;8.436;2023-03-21T02:39:14;100617.72;;;8.97;100.00
32109;BME280;18624;50.042;8.436;2023-03-21T02:42:03;100529.50;;;8.35;100.00
32109;BME280;18624;50.042;8.436;2023-03-21T02:44:43;100617.38;;;8.91;100.00
32109;BME280;18624;50.042;8.436;2023-03-21T02:47:48;100614.78;;;8.84;100.00
32109;BME280;18624;50.042;8.436;2023-03-21T02:50:25;100610.56;;;8.76;100.00
32109;BME280;18624;50.042;8.436;2023-03-21T02:52:53;100620.31;;;8.77;100.00
32109;BME280;18624;50.042;8.436;2023-03-21T02:55:25;100620.34;;;8.73;100.00
32109;BME280;18624;50.042;8.436;2023-03-21T02:57:57;100625.13;;;8.69;100.00
32109;BME280;18624;50.042;8.436;2023-03-21T03:00:35;100630.97;;;8.68;100.00
32109;BME280;18624;50.042;8.436;2023-03-21T03:03:04;100624.00;;;8.63;100.00
32109;BME280;18624;50.042;8.436;2023-03-21T03:05:53;100626.72;;;8.63;100.00
32109;BME280;18624;50.042;8.436;2023-03-21T03:11:25;100616.69;;;8.56;100.00
32109;BME280;18624;50.042;8.436;2023-03-21T03:17:02;100609.75;;;8.48;100.00
32109;BME280;18624;50.042;8.436;2023-03-21T03:19:44;100612.81;;;8.50;100.00
32109;BME280;18624;50.042;8.436;2023-03-21T03:22:25;100601.84;;;8.54;100.00
32109;BME280;18624;50.042;8.436;2023-03-21T03:25:04;100618.25;;;8.54;100.00
32109;BME280;18624;50.042;8.436;2023-03-21T03:27:53;100591.06;;;8.43;100.00
32109;BME280;18624;50.042;8.436;2023-03-21T03:30:23;100603.41;;;8.55;100.00
32109;BME280;18624;50.042;8.436;2023-03-21T03:33:00;100599.59;;;8.49;100.00
32109;BME280;18624;50.042;8.436;2023-03-21T03:35:28;100568.56;;;8.28;100.00
32109;BME280;18624;50.042;8.436;2023-03-21T03:37:57;100598.78;;;8.52;100.00
32109;BME280;18624;50.042;8.436;2023-03-21T03:40:29;100592.63;;;8.44;100.00
32109;BME280;18624;50.042;8.436;2023-03-21T03:43:17;100576.41;;;8.26;100.00
32109;BME280;18624;50.042;8.436;2023-03-21T03:45:49;100598.44;;;8.46;100.00
32109;BME280;18624;50.042;8.436;2023-03-21T03:48:25;100605.47;;;8.47;100.00
32109;BME280;18624;50.042;8.436;2023-03-21T03:51:01;100596.44;;;8.50;100.00
32109;BME280;18624;50.042;8.436;2023-03-21T03:53:52;100592.91;;;8.53;100.00
32109;BME280;18624;50.042;8.436;2023-03-21T03:56:24;100594.81;;;8.56;100.00
32109;BME280;18624;50.042;8.436;2023-03-21T03:58:52;100596.72;;;8.59;100.00
32109;BME280;18624;50.042;8.436;2023-03-21T04:01:24;100600.94;;;8.64;100.00
32109;BME280;18624;50.042;8.436;2023-03-21T04:03:51;100582.97;;;8.67;100.00
32109;BME280;18624;50.042;8.436;2023-03-21T04:06:35;100589.97;;;8.68;100.00
32109;BME280;18624;50.042;8.436;2023-03-21T04:09:03;100589.97;;;8.68;100.00
32109;BME280;18624;50.042;8.436;2023-03-21T04:11:44;100583.00;;;8.63;100.00
32109;BME280;18624;50.042;8.436;2023-03-21T04:14:11;100586.91;;;8.66;100.00
32109;BME280;18624;50.042;8.436;2023-03-21T04:16:37;100577.59;;;8.59;100.00
32109;BME280;18624;50.042;8.436;2023-03-21T04:19:04;100583.50;;;8.54;100.00
32109;BME280;18624;50.042;8.436;2023-03-21T04:21:30;100580.03;;;8.50;100.00
32109;BME280;18624;50.042;8.436;2023-03-21T04:23:58;100587.13;;;8.48;100.00
32109;BME280;18624;50.042;8.436;2023-03-21T04:26:25;100589.84;;;8.48;100.00
32109;BME280;18624;50.042;8.436;2023-03-21T04:29:18;100591.34;;;8.52;100.00
32109;BME280;18624;50.042;8.436;2023-03-21T04:32:04;100604.13;;;8.59;100.00
32109;BME280;18624;50.042;8.436;2023-03-21T04:34:44;100605.63;;;8.63;100.00
32109;BME280;18624;50.042;8.436;2023-03-21T04:37:17;100598.59;;;8.66;100.00
32109;BME280;18624;50.042;8.436;2023-03-21T04:39:45;100602.44;;;8.69;100.00
32109;BME280;18624;50.042;8.436;2023-03-21T04:42:13;100602.44;;;8.69;100.00
32109;BME280;18624;50.042;8.436;2023-03-21T04:44:40;100534.25;;;8.27;100.00
32109;BME280;18624;50.042;8.436;2023-03-21T04:47:07;100595.44;;;8.68;100.00
32109;BME280;18624;50.042;8.436;2023-03-21T04:49:34;100601.69;;;8.68;100.00
32109;BME280;18624;50.042;8.436;2023-03-21T04:52:01;100581.19;;;8.53;100.00
32109;BME280;18624;50.042;8.436;2023-03-21T04:54:28;100586.06;;;8.69;100.00
32109;BME280;18624;50.042;8.436;2023-03-21T04:56:55;100588.78;;;8.69;100.00
32109;BME280;18624;50.042;8.436;2023-03-21T04:59:25;100593.09;;;8.70;100.00
32109;BME280;18624;50.042;8.436;2023-03-21T05:01:52;100584.56;;;8.64;100.00
32109;BME280;18624;50.042;8.436;2023-03-21T05:04:18;100586.44;;;8.71;100.00
32109;BME280;18624;50.042;8.436;2023-03-21T05:06:45;100586.84;;;8.69;100.00
32109;BME280;18624;50.042;8.436;2023-03-21T05:09:14;100578.69;;;8.66;100.00
32109;BME280;18624;50.042;8.436;2023-03-21T05:11:42;100583.31;;;8.69;100.00
32109;BME280;18624;50.042;8.436;2023-03-21T05:14:16;100580.59;;;8.69;100.00
32109;BME280;18624;50.042;8.436;2023-03-21T05:16:44;100586.06;;;8.69;100.00
32109;BME280;18624;50.042;8.436;2023-03-21T05:19:15;100547.31;;;8.47;100.00
32109;BME280;18624;50.042;8.436;2023-03-21T05:21:42;100585.28;;;8.68;100.00
32109;BME280;18624;50.042;8.436;2023-03-21T05:24:16;100583.31;;;8.69;100.00
32109;BME280;18624;50.042;8.436;2023-03-21T05:26:45;100583.69;;;8.71;100.00
32109;BME280;18624;50.042;8.436;2023-03-21T05:29:17;100560.84;;;8.57;100.00
32109;BME280;18624;50.042;8.436;2023-03-21T05:31:50;100536.84;;;8.42;100.00
32109;BME280;18624;50.042;8.436;2023-03-21T05:34:18;100574.78;;;8.67;100.00
32109;BME280;18624;50.042;8.436;2023-03-21T05:36:45;100515.97;;;8.24;100.00
32109;BME280;18624;50.042;8.436;2023-03-21T05:39:11;100574.03;;;8.62;100.00
32109;BME280;18624;50.042;8.436;2023-03-21T05:41:44;100577.19;;;8.61;100.00
32109;BME280;18624;50.042;8.436;2023-03-21T05:44:12;100567.38;;;8.63;100.00
32109;BME280;18624;50.042;8.436;2023-03-21T05:46:38;100570.88;;;8.64;100.00
32109;BME280;18624;50.042;8.436;2023-03-21T05:49:05;100577.16;;;8.65;100.00
32109;BME280;18624;50.042;8.436;2023-03-21T05:51:32;100564.66;;;8.63;100.00
32109;BME280;18624;50.042;8.436;2023-03-21T05:53:58;100563.88;;;8.63;100.00
32109;BME280;18624;50.042;8.436;2023-03-21T05:56:25;100556.56;;;8.56;100.00
32109;BME280;18624;50.042;8.436;2023-03-21T05:58:59;100495.78;;;8.15;100.00
32109;BME280;18624;50.042;8.436;2023-03-21T06:01:28;100356.47;;;7.30;100.00
32109;BME280;18624;50.042;8.436;2023-03-21T06:04:05;100574.28;;;8.75;100.00
32109;BME280;18624;50.042;8.436;2023-03-21T06:06:32;100582.00;;;8.80;100.00
32109;BME280;18624;50.042;8.436;2023-03-21T06:08:59;100497.47;;;8.39;100.00
32109;BME280;18624;50.042;8.436;2023-03-21T06:11:30;100588.16;;;8.88;100.00
32109;BME280;18624;50.042;8.436;2023-03-21T06:14:16;100578.78;;;8.89;100.00
32109;BME280;18624;50.042;8.436;2023-03-21T06:16:44;100578.72;;;8.93;100.00
32109;BME280;18624;50.042;8.436;2023-03-21T06:19:11;100571.25;;;8.97;100.00
32109;BME280;18624;50.042;8.436;2023-03-21T06:21:56;100534.56;;;8.67;100.00
32109;BME280;18624;50.042;8.436;2023-03-21T06:24:23;100577.03;;;9.02;100.00
32109;BME280;18624;50.042;8.436;2023-03-21T06:26:49;100577.03;;;9.02;100.00
32109;BME280;18624;50.042;8.436;2023-03-21T06:29:16;100568.06;;;9.02;100.00
32109;BME280;18624;50.042;8.436;2023-03-21T06:31:47;100538.31;;;8.77;100.00
32109;BME280;18624;50.042;8.436;2023-03-21T06:34:14;100574.72;;;9.01;100.00
32109;BME280;18624;50.042;8.436;2023-03-21T06:36:41;100565.78;;;8.97;100.00
32109;BME280;18624;50.042;8.436;2023-03-21T06:39:11;100577.19;;;8.92;100.00
32109;BME280;18624;50.042;8.436;2023-03-21T06:41:39;100570.56;;;8.89;100.00
32109;BME280;18624;50.042;8.436;2023-03-21T06:44:06;100570.56;;;8.89;100.00
32109;BME280;18624;50.042;8.436;2023-03-21T06:46:39;100566.28;;;8.88;100.00
32109;BME280;18624;50.042;8.436;2023-03-21T06:49:07;100567.47;;;8.87;100.00
32109;BME280;18624;50.042;8.436;2023-03-21T06:51:33;100571.00;;;8.87;100.00
32109;BME280;18624;50.042;8.436;2023-03-21T06:54:07;100566.66;;;8.90;100.00
32109;BME280;18624;50.042;8.436;2023-03-21T06:56:38;100569.63;;;8.99;100.00
32109;BME280;18624;50.042;8.436;2023-03-21T06:59:07;100574.25;;;9.06;100.00
32109;BME280;18624;50.042;8.436;2023-03-21T07:01:49;100580.06;;;9.08;100.00
32109;BME280;18624;50.042;8.436;2023-03-21T07:04:15;100586.22;;;9.16;100.00
32109;BME280;18624;50.042;8.436;2023-03-21T07:06:42;100577.56;;;9.17;100.00
32109;BME280;18624;50.042;8.436;2023-03-21T07:09:09;100588.41;;;9.24;100.00
32109;BME280;18624;50.042;8.436;2023-03-21T07:11:36;100586.00;;;9.30;100.00
32109;BME280;18624;50.042;8.436;2023-03-21T07:14:04;100588.66;;;9.33;100.00
32109;BME280;18624;50.042;8.436;2023-03-21T07:16:31;100593.28;;;9.36;100.00
32109;BME280;18624;50.042;8.436;2023-03-21T07:18:57;100511.38;;;8.79;100.00
32109;BME280;18624;50.042;8.436;2023-03-21T07:21:24;100598.31;;;9.42;100.00
32109;BME280;18624;50.042;8.436;2023-03-21T07:23:52;100600.22;;;9.45;100.00
32109;BME280;18624;50.042;8.436;2023-03-21T07:26:18;100601.31;;;9.51;100.00
32109;BME280;18624;50.042;8.436;2023-03-21T07:28:45;100590.66;;;9.56;100.00
32109;BME280;18624;50.042;8.436;2023-03-21T07:31:14;100595.66;;;9.61;100.00
32109;BME280;18624;50.042;8.436;2023-03-21T07:33:42;100611.97;;;9.69;100.00
32109;BME280;18624;50.042;8.436;2023-03-21T07:36:11;100601.41;;;9.67;100.00
32109;BME280;18624;50.042;8.436;2023-03-21T07:38:38;100549.53;;;9.36;100.00
32109;BME280;18624;50.042;8.436;2023-03-21T07:41:06;100597.41;;;9.72;100.00
32109;BME280;18624;50.042;8.436;2023-03-21T07:43:33;100600.94;;;9.72;100.00
32109;BME280;18624;50.042;8.436;2023-03-21T07:46:07;100602.84;;;9.75;100.00
32109;BME280;18624;50.042;8.436;2023-03-21T07:48:34;100601.25;;;9.78;100.00
32109;BME280;18624;50.042;8.436;2023-03-21T07:51:00;100597.25;;;9.82;100.00
32109;BME280;18624;50.042;8.436;2023-03-21T07:53:27;100595.22;;;9.86;100.00
32109;BME280;18624;50.042;8.436;2023-03-21T07:55:54;100597.16;;;9.86;100.00
32109;BME280;18624;50.042;8.436;2023-03-21T07:58:25;100599.78;;;9.93;100.00
32109;BME280;18624;50.042;8.436;2023-03-21T08:00:53;100554.09;;;9.67;100.00
32109;BME280;18624;50.042;8.436;2023-03-21T08:03:23;100595.03;;;9.97;100.00
32109;BME280;18624;50.042;8.436;2023-03-21T08:05:51;100595.75;;;10.01;100.00
32109;BME280;18624;50.042;8.436;2023-03-21T08:08:18;100592.09;;;10.08;100.00
32109;BME280;18624;50.042;8.436;2023-03-21T08:10:44;100593.78;;;10.22;100.00
32109;BME280;18624;50.042;8.436;2023-03-21T08:13:11;100593.47;;;10.39;100.00
32109;BME280;18624;50.042;8.436;2023-03-21T08:15:38;100534.94;;;10.10;100.00
32109;BME280;18624;50.042;8.436;2023-03-21T08:18:08;100591.50;;;10.60;100.00
32109;BME280;18624;50.042;8.436;2023-03-21T08:20:34;100592.84;;;10.52;100.00
32109;BME280;18624;50.042;8.436;2023-03-21T08:23:01;100578.09;;;10.46;100.00
32109;BME280;18624;50.042;8.436;2023-03-21T08:25:28;100597.91;;;10.53;100.00
32109;BME280;18624;50.042;8.436;2023-03-21T08:27:54;100490.28;;;9.93;100.00
32109;BME280;18624;50.042;8.436;2023-03-21T08:30:23;100588.34;;;10.61;100.00
32109;BME280;18624;50.042;8.436;2023-03-21T08:32:55;100586.22;;;10.69;100.00
32109;BME280;18624;50.042;8.436;2023-03-21T08:35:26;100545.28;;;10.42;100.00
32109;BME280;18624;50.042;8.436;2023-03-21T08:37:53;100586.56;;;10.71;100.00
32109;BME280;18624;50.042;8.436;2023-03-21T08:40:19;100594.91;;;10.84;100.00
32109;BME280;18624;50.042;8.436;2023-03-21T08:42:46;100590.63;;;10.83;100.00
32109;BME280;18624;50.042;8.436;2023-03-21T08:45:14;100492.88;;;10.20;99.61
32109;BME280;18624;50.042;8.436;2023-03-21T08:47:41;100598.22;;;10.95;98.88
32109;BME280;18624;50.042;8.436;2023-03-21T08:50:11;100594.59;;;10.98;97.53
32109;BME280;18624;50.042;8.436;2023-03-21T08:52:37;100589.91;;;10.99;96.31
32109;BME280;18624;50.042;8.436;2023-03-21T08:55:04;100580.53;;;10.96;95.45
32109;BME280;18624;50.042;8.436;2023-03-21T08:57:31;100589.72;;;11.06;95.03
32109;BME280;18624;50.042;8.436;2023-03-21T08:59:57;100599.59;;;11.03;94.93
32109;BME280;18624;50.042;8.436;2023-03-21T09:02:24;100564.25;;;10.89;93.85
32109;BME280;18624;50.042;8.436;2023-03-21T09:04:50;100580.88;;;10.98;94.34
32109;BME280;18624;50.042;8.436;2023-03-21T09:07:24;100595.47;;;11.11;95.36
32109;BME280;18624;50.042;8.436;2023-03-21T09:09:51;100590.34;;;11.13;96.59
32109;BME280;18624;50.042;8.436;2023-03-21T09:12:38;100591.97;;;11.11;95.26
32109;BME280;18624;50.042;8.436;2023-03-21T09:15:07;100559.97;;;10.88;95.47
32109;BME280;18624;50.042;8.436;2023-03-21T09:17:34;100592.41;;;11.09;97.43
32109;BME280;18624;50.042;8.436;2023-03-21T09:20:01;100580.41;;;11.03;98.34
32109;BME280;18624;50.042;8.436;2023-03-21T09:22:39;100597.88;;;11.09;95.28
32109;BME280;18624;50.042;8.436;2023-03-21T09:25:08;100593.69;;;11.05;95.37
32109;BME280;18624;50.042;8.436;2023-03-21T09:27:36;100580.47;;;11.00;95.91
32109;BME280;18624;50.042;8.436;2023-03-21T09:30:04;100596.00;;;11.06;94.79
32109;BME280;18624;50.042;8.436;2023-03-21T09:32:31;100595.56;;;11.08;94.98
32109;BME280;18624;50.042;8.436;2023-03-21T09:34:58;100593.59;;;11.08;94.54
32109;BME280;18624;50.042;8.436;2023-03-21T09:37:25;100593.16;;;11.10;94.38
32109;BME280;18624;50.042;8.436;2023-03-21T09:39:51;100590.34;;;11.13;92.83
32109;BME280;18624;50.042;8.436;2023-03-21T09:43:04;100591.75;;;11.22;93.14
32109;BME280;18624;50.042;8.436;2023-03-21T09:45:36;100590.34;;;11.30;95.49
32109;BME280;18624;50.042;8.436;2023-03-21T09:48:14;100583.50;;;11.38;96.14
32109;BME280;18624;50.042;8.436;2023-03-21T09:50:45;100589.59;;;11.46;98.59
32109;BME280;18624;50.042;8.436;2023-03-21T09:53:20;100591.81;;;11.51;98.05
32109;BME280;18624;50.042;8.436;2023-03-21T09:55:48;100591.28;;;11.56;96.94
32109;BME280;18624;50.042;8.436;2023-03-21T09:58:32;100580.56;;;11.61;91.81
32109;BME280;18624;50.042;8.436;2023-03-21T10:03:36;100587.09;;;11.68;91.64
32109;BME280;18624;50.042;8.436;2023-03-21T10:06:09;100578.84;;;11.68;87.75
32109;BME280;18624;50.042;8.436;2023-03-21T10:08:39;100568.25;;;11.53;86.68
32109;BME280;18624;50.042;8.436;2023-03-21T10:11:19;100580.84;;;11.67;85.25
32109;BME280;18624;50.042;8.436;2023-03-21T10:13:51;100582.81;;;11.66;85.94
32109;BME280;18624;50.042;8.436;2023-03-21T10:16:26;100581.59;;;11.68;87.25
32109;BME280;18624;50.042;8.436;2023-03-21T10:18:54;100581.16;;;11.69;90.21
32109;BME280;18624;50.042;8.436;2023-03-21T10:21:23;100582.38;;;11.68;92.54
32109;BME280;18624;50.042;8.436;2023-03-21T10:24:12;100582.38;;;11.68;92.55
32109;BME280;18624;50.042;8.436;2023-03-21T10:26:39;100580.91;;;11.63;93.60
32109;BME280;18624;50.042;8.436;2023-03-21T10:29:06;100571.31;;;11.55;93.74
32109;BME280;18624;50.042;8.436;2023-03-21T10:31:32;100579.91;;;11.57;95.58
32109;BME280;18624;50.042;8.436;2023-03-21T10:34:04;100578.84;;;11.51;96.56
32109;BME280;18624;50.042;8.436;2023-03-21T10:36:33;100580.91;;;11.47;99.49
32109;BME280;18624;50.042;8.436;2023-03-21T10:39:04;100578.25;;;11.44;100.00
32109;BME280;18624;50.042;8.436;2023-03-21T10:41:32;100517.38;;;11.00;100.00
32109;BME280;18624;50.042;8.436;2023-03-21T10:44:05;100579.53;;;11.39;100.00
32109;BME280;18624;50.042;8.436;2023-03-21T10:46:32;100593.69;;;11.37;100.00
32109;BME280;18624;50.042;8.436;2023-03-21T10:49:01;100577.31;;;11.34;100.00
32109;BME280;18624;50.042;8.436;2023-03-21T10:51:35;100582.13;;;11.30;100.00
32109;BME280;18624;50.042;8.436;2023-03-21T10:54:07;100571.81;;;11.34;100.00
32109;BME280;18624;50.042;8.436;2023-03-21T10:56:39;100584.00;;;11.33;100.00
32109;BME280;18624;50.042;8.436;2023-03-21T10:59:17;100584.78;;;11.33;100.00
32109;BME280;18624;50.042;8.436;2023-03-21T11:01:49;100588.72;;;11.32;100.00
32109;BME280;18624;50.042;8.436;2023-03-21T11:04:23;100585.22;;;11.32;100.00
32109;BME280;18624;50.042;8.436;2023-03-21T11:06:56;100589.16;;;11.31;100.00
32109;BME280;18624;50.042;8.436;2023-03-21T11:09:41;100582.91;;;11.30;100.00
32109;BME280;18624;50.042;8.436;2023-03-21T11:12:10;100589.25;;;11.27;100.00
32109;BME280;18624;50.042;8.436;2023-03-21T11:14:43;100586.50;;;11.27;100.00
32109;BME280;18624;50.042;8.436;2023-03-21T11:20:15;100576.03;;;11.22;100.00
32109;BME280;18624;50.042;8.436;2023-03-21T11:22:45;100583.91;;;11.20;100.00
32109;BME280;18624;50.042;8.436;2023-03-21T11:25:38;100586.31;;;11.18;100.00
32109;BME280;18624;50.042;8.436;2023-03-21T11:28:19;100580.47;;;11.16;100.00
32109;BME280;18624;50.042;8.436;2023-03-21T11:33:18;100576.63;;;11.13;100.00
32109;BME280;18624;50.042;8.436;2023-03-21T11:35:58;100569.94;;;11.14;100.00
32109;BME280;18624;50.042;8.436;2023-03-21T11:38:29;100567.72;;;11.09;100.00
32109;BME280;18624;50.042;8.436;2023-03-21T11:40:59;100561.88;;;11.07;100.00
32109;BME280;18624;50.042;8.436;2023-03-21T11:43:29;100562.22;;;11.09;100.00
32109;BME280;18624;50.042;8.436;2023-03-21T11:48:24;100556.66;;;11.13;100.00
32109;BME280;18624;50.042;8.436;2023-03-21T11:50:57;100548.00;;;11.14;100.00
32109;BME280;18624;50.042;8.436;2023-03-21T11:56:24;100550.66;;;11.18;100.00
32109;BME280;18624;50.042;8.436;2023-03-21T12:01:38;100530.00;;;11.13;100.00
32109;BME280;18624;50.042;8.436;2023-03-21T12:04:17;100530.00;;;11.13;100.00
32109;BME280;18624;50.042;8.436;2023-03-21T12:06:53;100524.84;;;11.15;100.00
32109;BME280;18624;50.042;8.436;2023-03-21T12:09:37;100525.09;;;11.21;100.00
32109;BME280;18624;50.042;8.436;2023-03-21T12:18:08;100514.81;;;11.25;100.00
32109;BME280;18624;50.042;8.436;2023-03-21T12:20:41;100511.28;;;11.25;100.00
32109;BME280;18624;50.042;8.436;2023-03-21T12:26:23;100495.03;;;11.18;100.00
32109;BME280;18624;50.042;8.436;2023-03-21T12:34:55;100502.91;;;11.15;100.00
32109;BME280;18624;50.042;8.436;2023-03-21T12:37:33;100493.13;;;11.14;100.00
32109;BME280;18624;50.042;8.436;2023-03-21T12:46:00;100484.03;;;11.01;100.00
32109;BME280;18624;50.042;8.436;2023-03-21T12:48:55;100489.59;;;10.98;100.00
32109;BME280;18624;50.042;8.436;2023-03-21T12:51:28;100476.66;;;10.98;100.00
32109;BME280;18624;50.042;8.436;2023-03-21T12:54:13;100480.53;;;11.01;100.00
32109;BME280;18624;50.042;8.436;2023-03-21T12:56:53;100468.78;;;11.00;100.00
32109;BME280;18624;50.042;8.436;2023-03-21T12:59:47;100473.06;;;11.01;100.00
32109;BME280;18624;50.042;8.436;2023-03-21T13:02:24;100466.38;;;11.02;100.00
32109;BME280;18624;50.042;8.436;2023-03-21T13:04:58;100465.19;;;11.03;100.00
32109;BME280;18624;50.042;8.436;2023-03-21T13:07:28;100435.63;;;10.95;100.00
32109;BME280;18624;50.042;8.436;2023-03-21T13:09:57;100439.56;;;10.94;100.00
32109;BME280;18624;50.042;8.436;2023-03-21T13:12:39;100465.19;;;11.03;100.00
32109;BME280;18624;50.042;8.436;2023-03-21T13:18:22;100462.09;;;11.01;100.00
32109;BME280;18624;50.042;8.436;2023-03-21T13:20:53;100458.50;;;11.04;100.00
32109;BME280;18624;50.042;8.436;2023-03-21T13:23:23;100439.16;;;10.95;100.00
32109;BME280;18624;50.042;8.436;2023-03-21T13:25:53;100458.84;;;11.06;100.00
32109;BME280;18624;50.042;8.436;2023-03-21T13:28:25;100449.41;;;11.07;100.00
32109;BME280;18624;50.042;8.436;2023-03-21T13:30:52;100450.59;;;11.06;100.00
32109;BME280;18624;50.042;8.436;2023-03-21T13:33:22;100451.03;;;11.05;100.00
32109;BME280;18624;50.042;8.436;2023-03-21T13:36:15;100446.09;;;11.00;100.00
32109;BME280;18624;50.042;8.436;2023-03-21T13:38:49;100448.81;;;11.00;100.00
32109;BME280;18624;50.042;8.436;2023-03-21T13:41:20;100440.25;;;10.98;100.00
32109;BME280;18624;50.042;8.436;2023-03-21T13:44:07;100440.69;;;10.96;100.00
32109;BME280;18624;50.042;8.436;2023-03-21T13:46:42;100431.00;;;10.92;100.00
32109;BME280;18624;50.042;8.436;2023-03-21T13:49:36;100359.13;;;10.51;100.00
32109;BME280;18624;50.042;8.436;2023-03-21T13:54:47;100421.03;;;10.98;100.00
32109;BME280;18624;50.042;8.436;2023-03-21T14:00:17;100418.22;;;11.01;100.00
32109;BME280;18624;50.042;8.436;2023-03-21T14:03:14;100420.19;;;11.01;100.00
32109;BME280;18624;50.042;8.436;2023-03-21T14:05:48;100405.09;;;10.93;100.00
32109;BME280;18624;50.042;8.436;2023-03-21T14:08:17;100417.88;;;10.99;100.00
32109;BME280;18624;50.042;8.436;2023-03-21T14:11:05;100419.88;;;10.99;100.00
32109;BME280;18624;50.042;8.436;2023-03-21T14:13:32;100407.00;;;10.96;100.00
32109;BME280;18624;50.042;8.436;2023-03-21T14:16:15;100270.66;;;10.02;100.00
32109;BME280;18624;50.042;8.436;2023-03-21T14:18:50;100396.44;;;10.94;100.00
32109;BME280;18624;50.042;8.436;2023-03-21T14:21:26;100396.63;;;10.87;100.00
32109;BME280;18624;50.042;8.436;2023-03-21T14:24:00;100400.22;;;10.84;100.00